createdAt,value
2022-08-26T00:02:12.781Z,58.70
2022-08-26T00:04:40.527Z,58.78
2022-08-26T00:07:08.467Z,58.80
2022-08-26T00:09:38.942Z,58.90
2022-08-26T00:12:09.306Z,59.04
2022-08-26T00:14:39.725Z,59.07
2022-08-26T00:17:08.646Z,59.20
2022-08-26T00:19:36.310Z,59.22
2022-08-26T00:22:04.218Z,59.22
2022-08-26T00:24:32.614Z,59.27
2022-08-26T00:27:00.387Z,59.35
2022-08-26T00:29:28.453Z,59.43
2022-08-26T00:31:59.509Z,59.49
2022-08-26T00:34:27.155Z,59.49
2022-08-26T00:36:54.621Z,59.53
2022-08-26T00:39:22.145Z,59.61
2022-08-26T00:41:50.439Z,59.69
2022-08-26T00:44:19.439Z,59.67
2022-08-26T00:46:51.304Z,59.81
2022-08-26T00:49:40.893Z,59.90
2022-08-26T00:52:14.501Z,59.99
2022-08-26T00:54:51.026Z,60.01
2022-08-26T00:57:22.281Z,60.01
2022-08-26T00:59:56.580Z,59.98
2022-08-26T01:02:24.708Z,60.02
2022-08-26T01:04:56.483Z,60.11
2022-08-26T01:07:30.312Z,60.10
2022-08-26T01:10:00.689Z,60.15
2022-08-26T01:12:32.669Z,60.16
2022-08-26T01:15:02.070Z,60.08
2022-08-26T01:17:30.537Z,60.11
2022-08-26T01:20:12.990Z,60.18
2022-08-26T01:23:03.404Z,60.19
2022-08-26T01:25:34.422Z,60.32
2022-08-26T01:28:06.436Z,60.35
2022-08-26T01:30:35.392Z,60.32
2022-08-26T01:33:06.943Z,60.38
2022-08-26T01:35:34.616Z,60.23
2022-08-26T01:38:02.121Z,60.33
2022-08-26T01:40:33.909Z,60.48
2022-08-26T01:43:03.778Z,60.53
2022-08-26T01:45:34.474Z,60.55
2022-08-26T01:48:07.550Z,60.57
2022-08-26T01:50:36.960Z,60.53
2022-08-26T01:53:11.065Z,60.51
2022-08-26T01:55:42.915Z,60.60
2022-08-26T01:58:17.885Z,60.61
2022-08-26T02:00:46.974Z,60.68
2022-08-26T02:03:16.496Z,60.58
2022-08-26T02:05:58.125Z,60.57
2022-08-26T02:08:35.947Z,60.69
2022-08-26T02:11:04.084Z,60.73
2022-08-26T02:13:34.834Z,60.70
2022-08-26T02:16:03.840Z,60.85
2022-08-26T02:18:37.969Z,61.05
2022-08-26T02:21:07.537Z,61.13
2022-08-26T02:23:35.867Z,61.28
2022-08-26T02:26:09.215Z,61.43
2022-08-26T02:28:45.628Z,61.50
2022-08-26T02:31:13.135Z,61.58
2022-08-26T02:33:43.105Z,61.70
2022-08-26T02:36:13.381Z,61.80
2022-08-26T02:38:41.092Z,61.80
2022-08-26T02:41:11.369Z,61.81
2022-08-26T02:43:38.910Z,61.77
2022-08-26T02:46:06.365Z,61.85
2022-08-26T02:48:34.135Z,61.87
2022-08-26T02:51:04.099Z,61.87
2022-08-26T02:53:35.395Z,61.79
2022-08-26T02:56:07.352Z,61.94
2022-08-26T02:58:35.334Z,61.99
2022-08-26T03:01:04.854Z,62.06
2022-08-26T03:03:33.024Z,61.99
2022-08-26T03:06:01.094Z,62.20
2022-08-26T03:08:28.590Z,62.14
2022-08-26T03:10:56.067Z,62.13
2022-08-26T03:13:23.476Z,62.09
2022-08-26T03:15:50.965Z,62.16
2022-08-26T03:18:18.617Z,62.09
2022-08-26T03:20:48.279Z,62.25
2022-08-26T03:23:16.366Z,62.31
2022-08-26T03:25:53.733Z,62.42
2022-08-26T03:28:21.262Z,62.40
2022-08-26T03:30:49.162Z,62.50
2022-08-26T03:33:16.632Z,62.46
2022-08-26T03:35:47.657Z,62.65
2022-08-26T03:38:19.841Z,62.41
2022-08-26T03:40:47.872Z,62.31
2022-08-26T03:43:17.093Z,62.46
2022-08-26T03:45:44.638Z,62.48
2022-08-26T03:48:14.177Z,62.43
2022-08-26T03:50:42.396Z,62.44
2022-08-26T03:53:12.654Z,62.47
2022-08-26T03:55:41.420Z,62.38
2022-08-26T03:58:09.086Z,62.55
2022-08-26T04:00:36.800Z,62.33
2022-08-26T04:03:04.386Z,62.41
2022-08-26T04:05:32.105Z,62.38
2022-08-26T04:07:59.867Z,62.53
2022-08-26T04:10:28.977Z,62.72
2022-08-26T04:12:59.405Z,62.85
2022-08-26T04:15:27.854Z,62.84
2022-08-26T04:17:55.955Z,62.77
2022-08-26T04:20:26.710Z,62.78
2022-08-26T04:22:54.217Z,62.73
2022-08-26T04:25:22.398Z,62.66
2022-08-26T04:27:52.182Z,62.64
2022-08-26T04:30:20.291Z,62.68
2022-08-26T04:32:49.812Z,62.51
2022-08-26T04:35:17.714Z,62.39
2022-08-26T04:37:45.181Z,62.64
2022-08-26T04:40:12.862Z,62.81
2022-08-26T04:42:40.368Z,62.79
2022-08-26T04:45:10.259Z,62.76
2022-08-26T04:47:38.220Z,62.87
2022-08-26T04:50:08.314Z,62.66
2022-08-26T04:52:38.632Z,62.57
2022-08-26T04:55:08.588Z,62.58
2022-08-26T04:57:36.420Z,62.39
2022-08-26T05:00:06.840Z,62.43
2022-08-26T05:02:34.421Z,62.26
2022-08-26T05:05:02.548Z,62.22
2022-08-26T05:07:31.129Z,62.32
2022-08-26T05:10:00.181Z,62.28
2022-08-26T05:12:31.305Z,62.07
2022-08-26T05:14:59.852Z,62.23
2022-08-26T05:17:27.340Z,62.07
2022-08-26T05:19:55.387Z,62.16
2022-08-26T05:22:22.958Z,62.02
2022-08-26T05:24:50.409Z,61.98
2022-08-26T05:27:17.826Z,61.88
2022-08-26T05:29:45.800Z,61.82
2022-08-26T05:32:13.661Z,61.85
2022-08-26T05:34:43.024Z,61.63
2022-08-26T05:37:10.770Z,61.69
2022-08-26T05:39:41.226Z,61.56
2022-08-26T05:42:11.008Z,61.40
2022-08-26T05:44:53.546Z,61.37
2022-08-26T05:47:21.654Z,61.38
2022-08-26T05:49:51.619Z,61.25
2022-08-26T05:52:19.667Z,61.16
2022-08-26T05:54:47.310Z,61.25
2022-08-26T05:57:15.860Z,61.07
2022-08-26T05:59:43.783Z,61.19
2022-08-26T06:02:11.252Z,61.11
2022-08-26T06:04:41.393Z,61.06
2022-08-26T06:07:13.390Z,61.00
2022-08-26T06:09:41.427Z,61.07
2022-08-26T06:12:09.658Z,61.04
2022-08-26T06:14:37.082Z,60.95
2022-08-26T06:17:04.619Z,61.01
2022-08-26T06:19:33.123Z,60.95
2022-08-26T06:22:23.291Z,61.00
2022-08-26T06:25:07.875Z,61.11
2022-08-26T06:27:37.398Z,61.03
2022-08-26T06:30:05.462Z,61.15
2022-08-26T06:32:33.881Z,60.95
2022-08-26T06:35:01.630Z,60.85
2022-08-26T06:37:29.442Z,61.14
2022-08-26T06:39:57.081Z,61.20
2022-08-26T06:42:25.247Z,61.19
2022-08-26T06:44:54.121Z,61.17
2022-08-26T06:47:22.038Z,60.86
2022-08-26T06:49:50.369Z,60.65
2022-08-26T06:52:22.983Z,60.59
2022-08-26T06:54:52.155Z,60.39
2022-08-26T06:57:20.555Z,60.19
2022-08-26T06:59:51.242Z,60.12
2022-08-26T07:02:19.603Z,59.86
2022-08-26T07:04:48.410Z,59.74
2022-08-26T07:07:18.683Z,59.68
2022-08-26T07:09:49.542Z,59.65
2022-08-26T07:12:20.948Z,59.78
2022-08-26T07:14:48.513Z,59.57
2022-08-26T07:17:16.664Z,59.59
2022-08-26T07:19:44.193Z,59.50
2022-08-26T07:22:11.821Z,59.46
2022-08-26T07:24:42.422Z,59.37
2022-08-26T07:27:13.781Z,59.27
2022-08-26T07:29:43.300Z,59.11
2022-08-26T07:32:13.200Z,59.19
2022-08-26T07:34:42.872Z,59.09
2022-08-26T07:37:11.528Z,59.07
2022-08-26T07:39:40.436Z,58.82
2022-08-26T07:42:09.671Z,58.80
2022-08-26T07:44:38.050Z,58.70
2022-08-26T07:47:10.436Z,58.67
2022-08-26T07:49:57.951Z,58.48
2022-08-26T07:52:27.975Z,58.32
2022-08-26T07:54:58.467Z,58.03
2022-08-26T07:57:27.273Z,57.95
2022-08-26T07:59:55.912Z,58.07
2022-08-26T08:02:25.772Z,58.04
2022-08-26T08:04:54.451Z,57.82
2022-08-26T08:07:25.854Z,57.88
2022-08-26T08:10:13.454Z,57.68
2022-08-26T08:12:41.884Z,57.63
2022-08-26T08:15:13.182Z,57.41
2022-08-26T08:17:44.190Z,57.23
2022-08-26T08:20:13.843Z,57.08
2022-08-26T08:22:43.032Z,56.95
2022-08-26T08:25:12.233Z,56.75
2022-08-26T08:27:42.943Z,56.75
2022-08-26T08:30:13.786Z,56.63
2022-08-26T08:32:45.355Z,56.51
2022-08-26T08:35:16.158Z,56.49
2022-08-26T08:37:45.104Z,56.41
2022-08-26T08:40:18.799Z,56.67
2022-08-26T08:42:55.413Z,56.46
2022-08-26T08:45:36.277Z,56.30
2022-08-26T08:48:33.370Z,56.30
2022-08-26T08:51:32.910Z,56.29
2022-08-26T08:54:02.569Z,56.19
2022-08-26T08:56:40.750Z,56.09
2022-08-26T08:59:20.244Z,56.02
2022-08-26T09:02:04.898Z,56.05
2022-08-26T09:04:57.929Z,55.69
2022-08-26T09:07:52.302Z,55.37
2022-08-26T09:10:31.159Z,54.88
2022-08-26T09:13:01.285Z,54.76
2022-08-26T09:15:53.693Z,54.23
2022-08-26T09:18:46.057Z,53.79
2022-08-26T09:21:17.941Z,53.68
2022-08-26T09:23:49.708Z,53.12
2022-08-26T09:26:19.767Z,52.99
2022-08-26T09:28:55.122Z,52.93
2022-08-26T09:31:30.790Z,52.64
2022-08-26T09:34:21.187Z,52.54
2022-08-26T09:36:50.324Z,52.49
2022-08-26T09:39:23.684Z,52.44
2022-08-26T09:42:09.600Z,52.58
2022-08-26T09:45:00.128Z,52.56
2022-08-26T09:47:32.786Z,52.59
2022-08-26T09:50:40.189Z,52.63
2022-08-26T09:53:30.672Z,52.37
2022-08-26T09:56:13.925Z,51.83
2022-08-26T09:58:44.013Z,51.95
2022-08-26T10:01:36.340Z,52.03
2022-08-26T10:04:12.058Z,51.81
2022-08-26T10:07:01.718Z,51.66
2022-08-26T10:09:35.395Z,51.60
2022-08-26T10:12:11.825Z,51.18
2022-08-26T10:14:59.022Z,50.96
2022-08-26T10:17:36.685Z,50.69
2022-08-26T10:20:23.229Z,50.08
2022-08-26T10:22:54.199Z,49.44
2022-08-26T10:25:33.144Z,49.38
2022-08-26T10:28:08.534Z,48.91
2022-08-26T10:30:48.726Z,48.58
2022-08-26T10:33:17.915Z,48.37
2022-08-26T10:35:56.313Z,48.20
2022-08-26T10:38:30.397Z,47.75
2022-08-26T10:41:17.002Z,47.19
2022-08-26T10:43:55.367Z,46.61
2022-08-26T10:46:28.449Z,46.51
2022-08-26T10:49:03.340Z,46.39
2022-08-26T10:51:42.138Z,45.76
2022-08-26T10:54:20.338Z,45.50
2022-08-26T10:57:20.342Z,44.90
2022-08-26T11:00:30.044Z,44.61
2022-08-26T11:03:09.551Z,44.14
2022-08-26T11:06:18.360Z,44.09
2022-08-26T11:08:47.892Z,44.02
2022-08-26T11:11:48.023Z,43.47
2022-08-26T11:14:28.549Z,43.15
2022-08-26T11:16:59.598Z,42.53
2022-08-26T11:19:50.548Z,42.05
2022-08-26T11:22:25.707Z,41.84
2022-08-26T11:24:53.133Z,41.29
2022-08-26T11:27:24.747Z,41.08
2022-08-26T11:29:56.765Z,40.57
2022-08-26T11:32:44.562Z,40.46
2022-08-26T11:35:17.154Z,40.06
2022-08-26T11:37:55.443Z,39.90
2022-08-26T11:40:32.769Z,39.70
2022-08-26T11:43:06.396Z,39.43
2022-08-26T11:45:37.860Z,38.88
2022-08-26T11:48:18.734Z,38.47
2022-08-26T11:51:10.377Z,38.24
2022-08-26T11:53:42.509Z,37.74
2022-08-26T11:56:17.344Z,37.29
2022-08-26T11:58:47.370Z,37.15
2022-08-26T12:01:27.267Z,36.81
2022-08-26T12:04:00.174Z,36.31
2022-08-26T12:06:43.465Z,35.84
2022-08-26T12:09:34.428Z,35.56
2022-08-26T12:12:21.918Z,35.12
2022-08-26T12:14:49.920Z,35.11
2022-08-26T12:17:28.350Z,34.78
2022-08-26T12:19:55.823Z,34.55
2022-08-26T12:22:30.392Z,34.32
2022-08-26T12:25:09.779Z,33.67
2022-08-26T12:27:41.482Z,33.11
2022-08-26T12:30:19.906Z,32.91
2022-08-26T12:32:57.885Z,32.80
2022-08-26T12:35:28.780Z,32.50
2022-08-26T12:37:58.189Z,32.26
2022-08-26T12:40:28.969Z,31.81
2022-08-26T12:43:00.254Z,31.50
2022-08-26T12:45:55.316Z,31.27
2022-08-26T12:48:29.056Z,30.83
2022-08-26T12:50:57.749Z,30.79
2022-08-26T12:53:29.397Z,30.16
2022-08-26T12:56:00.351Z,29.75
2022-08-26T12:58:29.860Z,29.76
2022-08-26T13:01:13.509Z,29.44
2022-08-26T13:03:45.344Z,29.00
2022-08-26T13:06:27.867Z,28.69
2022-08-26T13:08:56.795Z,28.07
2022-08-26T13:11:26.442Z,27.72
2022-08-26T13:14:00.381Z,27.72
2022-08-26T13:16:30.333Z,27.14
2022-08-26T13:19:00.673Z,26.73
2022-08-26T13:21:37.498Z,26.53
2022-08-26T13:24:12.999Z,26.23
2022-08-26T13:26:42.735Z,25.95
2022-08-26T13:29:10.787Z,25.66
2022-08-26T13:31:41.302Z,25.64
2022-08-26T13:34:14.539Z,25.25
2022-08-26T13:36:44.320Z,25.32
2022-08-26T13:39:12.698Z,25.10
2022-08-26T13:41:40.378Z,24.54
2022-08-26T13:44:08.258Z,24.05
2022-08-26T13:46:36.272Z,24.02
2022-08-26T13:49:04.052Z,24.09
2022-08-26T13:51:32.471Z,23.73
2022-08-26T13:54:00.603Z,23.80
2022-08-26T13:56:29.891Z,23.58
2022-08-26T13:58:59.411Z,23.31
2022-08-26T14:01:29.120Z,23.06
2022-08-26T14:03:57.448Z,22.94
2022-08-26T14:06:25.124Z,22.51
2022-08-26T14:08:52.702Z,22.72
2022-08-26T14:11:21.411Z,22.46
2022-08-26T14:13:48.933Z,22.51
2022-08-26T14:16:26.089Z,22.27
2022-08-26T14:18:54.352Z,21.98
2022-08-26T14:21:21.872Z,21.69
2022-08-26T14:23:49.337Z,21.21
2022-08-26T14:26:28.865Z,20.99
2022-08-26T14:28:59.618Z,20.82
2022-08-26T14:31:29.418Z,20.59
2022-08-26T14:34:00.952Z,20.37
2022-08-26T14:36:29.076Z,20.25
2022-08-26T14:39:02.771Z,19.69
2022-08-26T14:41:32.030Z,19.70
2022-08-26T14:44:07.846Z,19.81
2022-08-26T14:46:45.965Z,19.44
2022-08-26T14:49:14.556Z,19.43
2022-08-26T14:51:42.565Z,19.25
2022-08-26T14:54:11.946Z,19.04
2022-08-26T14:57:00.312Z,18.70
2022-08-26T14:59:31.109Z,18.48
2022-08-26T15:02:00.565Z,18.42
2022-08-26T15:04:29.435Z,18.29
2022-08-26T15:06:58.936Z,18.16
2022-08-26T15:09:29.343Z,18.29
2022-08-26T15:11:56.842Z,18.29
2022-08-26T15:14:27.583Z,17.99
2022-08-26T15:16:57.613Z,17.91
2022-08-26T15:19:26.498Z,17.64
2022-08-26T15:21:54.461Z,17.51
2022-08-26T15:24:25.742Z,17.42
2022-08-26T15:26:53.632Z,17.12
2022-08-26T15:29:23.750Z,17.18
2022-08-26T15:31:51.496Z,17.42
2022-08-26T15:34:22.635Z,16.99
2022-08-26T15:36:50.133Z,16.84
2022-08-26T15:39:17.733Z,16.62
2022-08-26T15:41:45.454Z,16.74
2022-08-26T15:44:14.220Z,16.71
2022-08-26T15:46:42.913Z,16.26
2022-08-26T15:49:17.598Z,16.32
2022-08-26T15:51:50.454Z,16.10
2022-08-26T15:54:22.184Z,16.10
2022-08-26T15:56:52.093Z,16.26
2022-08-26T15:59:21.499Z,16.11
2022-08-26T16:01:49.161Z,15.99
2022-08-26T16:04:18.481Z,15.73
2022-08-26T16:06:50.038Z,15.93
2022-08-26T16:09:20.120Z,15.62
2022-08-26T16:11:50.021Z,15.43
2022-08-26T16:14:17.797Z,15.44
2022-08-26T16:16:45.358Z,15.65
2022-08-26T16:19:13.003Z,15.22
2022-08-26T16:21:41.394Z,15.17
2022-08-26T16:24:10.012Z,15.18
2022-08-26T16:26:39.335Z,15.29
2022-08-26T16:29:10.588Z,15.22
2022-08-26T16:31:39.019Z,15.35
2022-08-26T16:34:07.755Z,15.22
2022-08-26T16:36:37.260Z,14.96
2022-08-26T16:39:06.993Z,15.04
2022-08-26T16:41:35.061Z,15.28
2022-08-26T16:44:06.586Z,15.22
2022-08-26T16:46:35.678Z,15.24
2022-08-26T16:49:04.759Z,15.47
2022-08-26T16:51:32.854Z,15.77
2022-08-26T16:54:07.236Z,15.70
2022-08-26T16:56:36.475Z,15.87
2022-08-26T16:59:06.114Z,15.92
2022-08-26T17:01:33.797Z,16.25
2022-08-26T17:04:01.460Z,16.52
2022-08-26T17:06:29.686Z,16.92
2022-08-26T17:08:57.154Z,17.49
2022-08-26T17:11:24.651Z,17.79
2022-08-26T17:13:52.203Z,18.37
2022-08-26T17:16:23.321Z,18.71
2022-08-26T17:18:56.318Z,19.20
2022-08-26T17:21:25.048Z,19.81
2022-08-26T17:23:52.866Z,20.06
2022-08-26T17:26:21.080Z,20.22
2022-08-26T17:28:49.983Z,20.61
2022-08-26T17:31:18.687Z,21.29
2022-08-26T17:33:53.419Z,21.67
2022-08-26T17:36:27.838Z,21.81
2022-08-26T17:38:57.629Z,22.25
2022-08-26T17:41:26.186Z,22.73
2022-08-26T17:43:53.887Z,23.22
2022-08-26T17:46:22.136Z,23.82
2022-08-26T17:48:49.940Z,24.11
2022-08-26T17:51:19.435Z,24.45
2022-08-26T17:53:47.867Z,24.93
2022-08-26T17:56:17.796Z,25.43
2022-08-26T17:58:51.133Z,25.83
2022-08-26T18:01:26.069Z,26.26
2022-08-26T18:03:59.688Z,26.77
2022-08-26T18:06:30.593Z,27.34
2022-08-26T18:09:00.015Z,27.84
2022-08-26T18:11:28.417Z,28.46
2022-08-26T18:13:55.881Z,28.89
2022-08-26T18:16:23.556Z,29.37
2022-08-26T18:18:53.863Z,29.77
2022-08-26T18:21:24.468Z,30.25
2022-08-26T18:23:53.691Z,30.57
2022-08-26T18:26:26.565Z,31.04
2022-08-26T18:28:54.164Z,31.49
2022-08-26T18:31:22.687Z,31.83
2022-08-26T18:33:50.867Z,32.25
2022-08-26T18:36:23.129Z,32.57
2022-08-26T18:38:52.204Z,32.91
2022-08-26T18:41:22.056Z,33.18
2022-08-26T18:43:51.465Z,33.24
2022-08-26T18:46:22.077Z,33.14
2022-08-26T18:48:51.058Z,33.18
2022-08-26T18:51:22.125Z,33.31
2022-08-26T18:53:50.319Z,33.45
2022-08-26T18:56:18.876Z,33.73
2022-08-26T18:58:47.123Z,34.14
2022-08-26T19:01:16.615Z,34.52
2022-08-26T19:03:46.078Z,34.86
2022-08-26T19:06:17.050Z,35.06
2022-08-26T19:08:45.078Z,35.16
2022-08-26T19:11:32.466Z,34.93
2022-08-26T19:14:08.214Z,35.00
2022-08-26T19:16:37.473Z,35.18
2022-08-26T19:19:06.340Z,35.25
2022-08-26T19:21:36.430Z,35.48
2022-08-26T19:24:09.235Z,35.61
2022-08-26T19:26:38.752Z,35.48
2022-08-26T19:29:06.530Z,35.68
2022-08-26T19:31:34.108Z,35.61
2022-08-26T19:34:01.941Z,35.77
2022-08-26T19:36:29.421Z,35.99
2022-08-26T19:38:57.498Z,35.93
2022-08-26T19:41:37.012Z,36.17
2022-08-26T19:44:10.562Z,36.18
2022-08-26T19:49:06.787Z,36.53
2022-08-26T19:51:36.450Z,36.57
2022-08-26T19:54:04.250Z,36.60
2022-08-26T19:56:32.427Z,36.65
2022-08-26T19:58:59.892Z,36.84
2022-08-26T20:01:27.580Z,36.87
2022-08-26T20:06:23.898Z,36.99
2022-08-26T20:08:52.097Z,37.16
2022-08-26T20:11:24.216Z,37.26
2022-08-26T20:13:52.156Z,37.57
2022-08-26T20:16:19.784Z,37.51
2022-08-26T20:19:03.513Z,37.61
2022-08-26T20:21:35.741Z,37.49
2022-08-26T20:24:08.227Z,37.48
2022-08-26T20:26:38.077Z,37.53
2022-08-26T20:29:08.233Z,37.61
2022-08-26T20:31:36.135Z,37.62
2022-08-26T20:34:05.201Z,37.95
2022-08-26T20:36:34.248Z,37.90
2022-08-26T20:39:01.759Z,37.87
2022-08-26T20:41:29.604Z,37.96
2022-08-26T20:43:57.385Z,38.22
2022-08-26T20:46:26.303Z,38.18
2022-08-26T20:48:54.181Z,38.16
2022-08-26T20:51:26.247Z,38.17
2022-08-26T20:53:53.890Z,38.27
2022-08-26T20:56:24.203Z,38.31
2022-08-26T20:58:55.543Z,38.43
2022-08-26T21:01:26.542Z,38.63
2022-08-26T21:03:55.506Z,38.63
2022-08-26T21:06:23.756Z,38.65
2022-08-26T21:08:51.513Z,38.71
2022-08-26T21:11:21.323Z,38.75
2022-08-26T21:14:04.289Z,38.75
2022-08-26T21:16:36.140Z,38.93
2022-08-26T21:19:05.790Z,38.96
2022-08-26T21:21:34.620Z,39.00
2022-08-26T21:24:02.960Z,39.18
2022-08-26T21:26:30.576Z,39.20
2022-08-26T21:28:58.070Z,39.25
2022-08-26T21:44:53.664Z,39.93
2022-08-26T21:47:22.308Z,40.07
2022-08-26T21:49:51.067Z,40.13
2022-08-26T21:55:38.621Z,40.22
2022-08-26T21:58:06.160Z,40.44
2022-08-26T22:00:33.762Z,40.51
2022-08-26T22:03:01.328Z,40.45
2022-08-26T22:05:29.152Z,40.68
2022-08-26T22:07:56.639Z,40.84
2022-08-26T22:10:24.173Z,40.90
2022-08-26T22:12:51.710Z,41.08
2022-08-26T22:15:22.959Z,41.15
2022-08-26T22:17:50.456Z,41.07
2022-08-26T22:20:17.934Z,41.16
2022-08-26T22:22:45.541Z,41.32
2022-08-26T22:25:13.088Z,41.54
2022-08-26T22:27:42.851Z,41.44
2022-08-26T22:30:11.726Z,41.73
2022-08-26T22:32:40.356Z,41.69
2022-08-26T22:35:28.228Z,41.80
2022-08-26T22:37:55.532Z,41.96
2022-08-26T22:40:24.969Z,42.01
2022-08-26T22:42:58.114Z,42.06
2022-08-26T22:45:31.323Z,42.06
2022-08-26T22:48:04.469Z,42.03
2022-08-26T22:50:32.398Z,42.24
2022-08-26T22:52:59.847Z,42.35
2022-08-26T22:55:27.335Z,42.43
2022-08-26T22:57:54.908Z,42.44
2022-08-26T23:00:22.374Z,42.48
2022-08-26T23:03:02.008Z,42.61
2022-08-26T23:05:31.332Z,42.72
2022-08-26T23:07:59.846Z,42.73
2022-08-26T23:10:27.359Z,42.80
2022-08-26T23:12:55.252Z,42.97
2022-08-26T23:15:22.896Z,43.10
2022-08-26T23:17:53.580Z,43.21
2022-08-26T23:20:28.380Z,43.23
2022-08-26T23:22:56.348Z,43.51
2022-08-26T23:25:24.699Z,43.40
2022-08-26T23:27:52.630Z,43.44
2022-08-26T23:30:23.712Z,43.64
2022-08-26T23:32:51.842Z,43.69
2022-08-26T23:35:21.548Z,43.85
2022-08-26T23:37:52.040Z,43.71
2022-08-26T23:40:38.592Z,44.07
2022-08-26T23:43:08.661Z,44.12
2022-08-26T23:45:36.335Z,44.34
2022-08-26T23:48:06.564Z,44.27
2022-08-26T23:50:50.284Z,44.55
2022-08-26T23:53:21.974Z,44.30
2022-08-26T23:55:51.954Z,44.55
2022-08-26T23:58:20.777Z,44.55
